sensor_id;sensor_type;location;lat;lon;timestamp;temperature;humidity
17984;DHT22;9117;52.420;20.728;2022-11-23T00:01:31;1.40;1.00
17984;DHT22;9117;52.420;20.728;2022-11-23T00:04:02;1.20;1.00
17984;DHT22;9117;52.420;20.728;2022-11-23T00:06:32;1.90;1.00
17984;DHT22;9117;52.420;20.728;2022-11-23T00:09:00;1.20;1.00
17984;DHT22;9117;52.420;20.728;2022-11-23T00:11:28;1.20;1.00
17984;DHT22;9117;52.420;20.728;2022-11-23T00:13:56;1.30;55.10
17984;DHT22;9117;52.420;20.728;2022-11-23T00:16:26;1.70;99.90
17984;DHT22;9117;52.420;20.728;2022-11-23T00:18:56;1.60;99.90
17984;DHT22;9117;52.420;20.728;2022-11-23T00:21:26;1.30;99.90
17984;DHT22;9117;52.420;20.728;2022-11-23T00:23:57;1.30;99.90
17984;DHT22;9117;52.420;20.728;2022-11-23T00:26:26;2.10;99.90
17984;DHT22;9117;52.420;20.728;2022-11-23T00:28:54;1.40;99.90
17984;DHT22;9117;52.420;20.728;2022-11-23T00:31:22;1.40;99.90
17984;DHT22;9117;52.420;20.728;2022-11-23T00:33:52;1.30;1.00
17984;DHT22;9117;52.420;20.728;2022-11-23T00:36:21;1.30;59.90
17984;DHT22;9117;52.420;20.728;2022-11-23T00:38:50;1.30;94.80
17984;DHT22;9117;52.420;20.728;2022-11-23T00:41:23;1.40;99.90
17984;DHT22;9117;52.420;20.728;2022-11-23T00:43:51;1.90;99.90
17984;DHT22;9117;52.420;20.728;2022-11-23T00:46:21;1.40;1.00
17984;DHT22;9117;52.420;20.728;2022-11-23T00:48:51;1.40;1.00
17984;DHT22;9117;52.420;20.728;2022-11-23T00:51:21;1.40;99.90
17984;DHT22;9117;52.420;20.728;2022-11-23T00:53:50;1.70;99.90
17984;DHT22;9117;52.420;20.728;2022-11-23T00:56:19;1.30;99.90
17984;DHT22;9117;52.420;20.728;2022-11-23T00:58:49;1.30;36.70
17984;DHT22;9117;52.420;20.728;2022-11-23T01:01:19;1.30;51.10
17984;DHT22;9117;52.420;20.728;2022-11-23T01:03:49;1.40;99.90
17984;DHT22;9117;52.420;20.728;2022-11-23T01:06:21;1.30;99.90
17984;DHT22;9117;52.420;20.728;2022-11-23T01:08:50;1.30;99.90
17984;DHT22;9117;52.420;20.728;2022-11-23T01:11:22;1.60;99.90
17984;DHT22;9117;52.420;20.728;2022-11-23T01:13:53;1.30;99.90
17984;DHT22;9117;52.420;20.728;2022-11-23T01:16:24;1.30;1.00
17984;DHT22;9117;52.420;20.728;2022-11-23T01:18:53;1.30;99.90
17984;DHT22;9117;52.420;20.728;2022-11-23T01:21:21;1.30;1.00
17984;DHT22;9117;52.420;20.728;2022-11-23T01:23:50;1.30;99.90
17984;DHT22;9117;52.420;20.728;2022-11-23T01:26:18;1.30;1.00
17984;DHT22;9117;52.420;20.728;2022-11-23T01:28:47;1.30;1.00
17984;DHT22;9117;52.420;20.728;2022-11-23T01:31:18;1.30;81.70
17984;DHT22;9117;52.420;20.728;2022-11-23T01:33:47;1.80;98.80
17984;DHT22;9117;52.420;20.728;2022-11-23T01:36:20;2.00;1.00
17984;DHT22;9117;52.420;20.728;2022-11-23T01:38:49;1.40;1.00
17984;DHT22;9117;52.420;20.728;2022-11-23T01:41:19;1.70;1.00
17984;DHT22;9117;52.420;20.728;2022-11-23T01:43:48;1.30;1.00
17984;DHT22;9117;52.420;20.728;2022-11-23T01:46:19;1.40;1.00
17984;DHT22;9117;52.420;20.728;2022-11-23T01:48:50;1.30;1.00
17984;DHT22;9117;52.420;20.728;2022-11-23T01:51:22;1.50;99.90
17984;DHT22;9117;52.420;20.728;2022-11-23T01:53:53;1.30;95.50
17984;DHT22;9117;52.420;20.728;2022-11-23T01:56:26;1.30;1.00
17984;DHT22;9117;52.420;20.728;2022-11-23T01:58:59;1.30;1.00
17984;DHT22;9117;52.420;20.728;2022-11-23T02:01:30;1.30;1.00
17984;DHT22;9117;52.420;20.728;2022-11-23T02:04:00;1.30;1.00
17984;DHT22;9117;52.420;20.728;2022-11-23T02:06:29;1.30;1.00
17984;DHT22;9117;52.420;20.728;2022-11-23T02:08:59;1.40;56.70
17984;DHT22;9117;52.420;20.728;2022-11-23T02:11:27;1.40;27.20
17984;DHT22;9117;52.420;20.728;2022-11-23T02:13:55;2.20;99.90
17984;DHT22;9117;52.420;20.728;2022-11-23T02:16:23;1.40;1.00
17984;DHT22;9117;52.420;20.728;2022-11-23T02:18:54;1.30;1.00
17984;DHT22;9117;52.420;20.728;2022-11-23T02:21:22;1.40;99.90
17984;DHT22;9117;52.420;20.728;2022-11-23T02:23:56;1.30;99.90
17984;DHT22;9117;52.420;20.728;2022-11-23T02:26:29;1.40;99.90
17984;DHT22;9117;52.420;20.728;2022-11-23T02:29:01;1.40;99.90
17984;DHT22;9117;52.420;20.728;2022-11-23T02:31:31;1.30;6.40
17984;DHT22;9117;52.420;20.728;2022-11-23T02:33:59;2.10;99.90
17984;DHT22;9117;52.420;20.728;2022-11-23T02:36:36;1.70;1.00
17984;DHT22;9117;52.420;20.728;2022-11-23T02:39:08;1.30;1.00
17984;DHT22;9117;52.420;20.728;2022-11-23T02:41:41;1.30;99.90
17984;DHT22;9117;52.420;20.728;2022-11-23T02:47:03;1.30;40.40
17984;DHT22;9117;52.420;20.728;2022-11-23T02:49:31;1.30;99.90
17984;DHT22;9117;52.420;20.728;2022-11-23T02:52:01;1.30;1.00
17984;DHT22;9117;52.420;20.728;2022-11-23T02:54:31;1.30;18.20
17984;DHT22;9117;52.420;20.728;2022-11-23T02:57:01;1.30;1.00
17984;DHT22;9117;52.420;20.728;2022-11-23T02:59:29;1.40;1.00
17984;DHT22;9117;52.420;20.728;2022-11-23T03:01:59;1.30;1.00
17984;DHT22;9117;52.420;20.728;2022-11-23T03:04:27;1.30;1.00
17984;DHT22;9117;52.420;20.728;2022-11-23T03:06:55;1.30;1.00
17984;DHT22;9117;52.420;20.728;2022-11-23T03:09:24;1.30;99.90
17984;DHT22;9117;52.420;20.728;2022-11-23T03:11:52;1.30;49.70
17984;DHT22;9117;52.420;20.728;2022-11-23T03:14:22;1.30;99.90
17984;DHT22;9117;52.420;20.728;2022-11-23T03:16:51;1.30;99.90
17984;DHT22;9117;52.420;20.728;2022-11-23T03:19:19;1.30;99.90
17984;DHT22;9117;52.420;20.728;2022-11-23T03:21:48;1.30;99.90
17984;DHT22;9117;52.420;20.728;2022-11-23T03:24:16;1.30;99.90
17984;DHT22;9117;52.420;20.728;2022-11-23T03:26:44;1.30;1.00
17984;DHT22;9117;52.420;20.728;2022-11-23T03:29:12;1.30;99.90
17984;DHT22;9117;52.420;20.728;2022-11-23T03:31:42;1.90;1.00
17984;DHT22;9117;52.420;20.728;2022-11-23T03:34:12;1.60;1.00
17984;DHT22;9117;52.420;20.728;2022-11-23T03:36:41;1.30;91.00
17984;DHT22;9117;52.420;20.728;2022-11-23T03:39:09;1.30;1.00
17984;DHT22;9117;52.420;20.728;2022-11-23T03:41:37;1.90;1.00
17984;DHT22;9117;52.420;20.728;2022-11-23T03:44:05;1.30;99.90
17984;DHT22;9117;52.420;20.728;2022-11-23T03:46:33;1.60;99.90
17984;DHT22;9117;52.420;20.728;2022-11-23T03:49:03;1.20;99.90
17984;DHT22;9117;52.420;20.728;2022-11-23T03:51:32;1.20;99.90
17984;DHT22;9117;52.420;20.728;2022-11-23T03:54:01;1.20;99.90
17984;DHT22;9117;52.420;20.728;2022-11-23T03:56:29;1.80;1.00
17984;DHT22;9117;52.420;20.728;2022-11-23T03:58:57;1.20;99.90
17984;DHT22;9117;52.420;20.728;2022-11-23T04:01:26;2.30;99.90
17984;DHT22;9117;52.420;20.728;2022-11-23T04:03:54;1.10;99.90
17984;DHT22;9117;52.420;20.728;2022-11-23T04:06:24;1.10;1.00
17984;DHT22;9117;52.420;20.728;2022-11-23T04:08:52;1.20;1.00
17984;DHT22;9117;52.420;20.728;2022-11-23T04:11:27;1.70;99.90
17984;DHT22;9117;52.420;20.728;2022-11-23T04:13:56;1.20;99.90
17984;DHT22;9117;52.420;20.728;2022-11-23T04:16:24;1.20;99.90
17984;DHT22;9117;52.420;20.728;2022-11-23T04:18:53;1.20;99.90
17984;DHT22;9117;52.420;20.728;2022-11-23T04:21:21;1.10;99.90
17984;DHT22;9117;52.420;20.728;2022-11-23T04:23:51;1.10;99.90
17984;DHT22;9117;52.420;20.728;2022-11-23T04:26:19;1.10;1.00
17984;DHT22;9117;52.420;20.728;2022-11-23T04:28:47;2.10;99.90
17984;DHT22;9117;52.420;20.728;2022-11-23T04:31:15;1.30;99.90
17984;DHT22;9117;52.420;20.728;2022-11-23T04:33:44;1.10;99.90
17984;DHT22;9117;52.420;20.728;2022-11-23T04:36:12;1.10;99.90
17984;DHT22;9117;52.420;20.728;2022-11-23T04:38:40;1.10;99.90
17984;DHT22;9117;52.420;20.728;2022-11-23T04:41:10;1.10;99.90
17984;DHT22;9117;52.420;20.728;2022-11-23T04:43:38;1.10;99.90
17984;DHT22;9117;52.420;20.728;2022-11-23T04:46:06;1.40;99.90
17984;DHT22;9117;52.420;20.728;2022-11-23T04:48:34;1.00;1.00
17984;DHT22;9117;52.420;20.728;2022-11-23T04:51:02;1.10;1.00
17984;DHT22;9117;52.420;20.728;2022-11-23T04:53:31;1.00;99.90
17984;DHT22;9117;52.420;20.728;2022-11-23T04:55:59;1.00;99.90
17984;DHT22;9117;52.420;20.728;2022-11-23T04:58:28;1.10;1.00
17984;DHT22;9117;52.420;20.728;2022-11-23T05:01:00;1.90;99.90
17984;DHT22;9117;52.420;20.728;2022-11-23T05:03:29;1.00;99.90
17984;DHT22;9117;52.420;20.728;2022-11-23T05:06:01;1.30;99.90
17984;DHT22;9117;52.420;20.728;2022-11-23T05:08:29;1.20;99.90
17984;DHT22;9117;52.420;20.728;2022-11-23T05:10:58;1.00;99.90
17984;DHT22;9117;52.420;20.728;2022-11-23T05:13:28;1.80;99.90
17984;DHT22;9117;52.420;20.728;2022-11-23T05:15:56;2.10;99.90
17984;DHT22;9117;52.420;20.728;2022-11-23T05:18:24;1.00;99.90
17984;DHT22;9117;52.420;20.728;2022-11-23T05:20:53;1.00;1.00
17984;DHT22;9117;52.420;20.728;2022-11-23T05:23:21;1.10;1.00
17984;DHT22;9117;52.420;20.728;2022-11-23T05:25:49;1.00;99.90
17984;DHT22;9117;52.420;20.728;2022-11-23T05:28:19;1.60;99.90
17984;DHT22;9117;52.420;20.728;2022-11-23T05:31:09;1.00;1.00
17984;DHT22;9117;52.420;20.728;2022-11-23T05:33:37;0.90;1.00
17984;DHT22;9117;52.420;20.728;2022-11-23T05:36:06;1.60;1.00
17984;DHT22;9117;52.420;20.728;2022-11-23T05:38:34;1.00;1.00
17984;DHT22;9117;52.420;20.728;2022-11-23T05:41:02;1.00;1.00
17984;DHT22;9117;52.420;20.728;2022-11-23T05:43:32;1.00;1.00
17984;DHT22;9117;52.420;20.728;2022-11-23T05:46:00;0.90;99.90
17984;DHT22;9117;52.420;20.728;2022-11-23T05:48:30;1.00;99.90
17984;DHT22;9117;52.420;20.728;2022-11-23T05:50:58;1.00;1.00
17984;DHT22;9117;52.420;20.728;2022-11-23T05:53:31;1.10;1.00
17984;DHT22;9117;52.420;20.728;2022-11-23T05:55:59;1.00;1.00
17984;DHT22;9117;52.420;20.728;2022-11-23T05:58:28;1.10;1.00
17984;DHT22;9117;52.420;20.728;2022-11-23T06:00:57;1.30;99.90
17984;DHT22;9117;52.420;20.728;2022-11-23T06:03:26;1.00;99.90
17984;DHT22;9117;52.420;20.728;2022-11-23T06:05:55;0.90;1.00
17984;DHT22;9117;52.420;20.728;2022-11-23T06:08:23;0.90;1.00
17984;DHT22;9117;52.420;20.728;2022-11-23T06:10:52;0.90;1.00
17984;DHT22;9117;52.420;20.728;2022-11-23T06:13:20;0.80;99.90
17984;DHT22;9117;52.420;20.728;2022-11-23T06:15:48;0.80;99.90
17984;DHT22;9117;52.420;20.728;2022-11-23T06:18:16;0.70;61.10
17984;DHT22;9117;52.420;20.728;2022-11-23T06:20:44;1.40;99.90
17984;DHT22;9117;52.420;20.728;2022-11-23T06:23:13;0.80;99.90
17984;DHT22;9117;52.420;20.728;2022-11-23T06:25:42;0.70;99.90
17984;DHT22;9117;52.420;20.728;2022-11-23T06:28:10;0.80;99.90
17984;DHT22;9117;52.420;20.728;2022-11-23T06:30:38;0.70;1.00
17984;DHT22;9117;52.420;20.728;2022-11-23T06:33:06;0.80;99.90
17984;DHT22;9117;52.420;20.728;2022-11-23T06:35:34;0.60;99.90
17984;DHT22;9117;52.420;20.728;2022-11-23T06:38:02;0.70;1.00
17984;DHT22;9117;52.420;20.728;2022-11-23T06:40:32;0.60;1.00
17984;DHT22;9117;52.420;20.728;2022-11-23T06:43:00;0.70;1.00
17984;DHT22;9117;52.420;20.728;2022-11-23T06:45:28;0.70;99.90
17984;DHT22;9117;52.420;20.728;2022-11-23T06:47:56;0.70;1.00
17984;DHT22;9117;52.420;20.728;2022-11-23T06:50:24;0.70;99.90
17984;DHT22;9117;52.420;20.728;2022-11-23T06:52:56;0.70;1.00
17984;DHT22;9117;52.420;20.728;2022-11-23T06:55:25;1.70;1.00
17984;DHT22;9117;52.420;20.728;2022-11-23T06:57:55;1.40;99.90
17984;DHT22;9117;52.420;20.728;2022-11-23T07:00:24;1.30;1.00
17984;DHT22;9117;52.420;20.728;2022-11-23T07:02:53;0.80;1.00
17984;DHT22;9117;52.420;20.728;2022-11-23T07:05:22;1.10;26.60
17984;DHT22;9117;52.420;20.728;2022-11-23T07:07:50;0.80;1.00
17984;DHT22;9117;52.420;20.728;2022-11-23T07:10:19;0.60;99.90
17984;DHT22;9117;52.420;20.728;2022-11-23T07:12:47;0.60;99.90
17984;DHT22;9117;52.420;20.728;2022-11-23T07:15:16;0.60;99.90
17984;DHT22;9117;52.420;20.728;2022-11-23T07:17:45;0.60;1.00
17984;DHT22;9117;52.420;20.728;2022-11-23T07:20:13;1.10;99.90
17984;DHT22;9117;52.420;20.728;2022-11-23T07:22:41;0.60;1.00
17984;DHT22;9117;52.420;20.728;2022-11-23T07:25:09;0.50;99.90
17984;DHT22;9117;52.420;20.728;2022-11-23T07:27:42;0.90;1.00
17984;DHT22;9117;52.420;20.728;2022-11-23T07:30:11;0.50;29.90
17984;DHT22;9117;52.420;20.728;2022-11-23T07:32:40;1.40;99.90
17984;DHT22;9117;52.420;20.728;2022-11-23T07:35:08;1.20;99.90
17984;DHT22;9117;52.420;20.728;2022-11-23T07:37:37;0.40;99.90
17984;DHT22;9117;52.420;20.728;2022-11-23T07:40:06;0.40;1.00
17984;DHT22;9117;52.420;20.728;2022-11-23T07:42:34;0.40;99.90
17984;DHT22;9117;52.420;20.728;2022-11-23T07:45:10;0.40;1.00
17984;DHT22;9117;52.420;20.728;2022-11-23T07:47:40;0.50;1.00
17984;DHT22;9117;52.420;20.728;2022-11-23T07:50:10;0.40;58.40
17984;DHT22;9117;52.420;20.728;2022-11-23T07:52:39;0.50;99.90
17984;DHT22;9117;52.420;20.728;2022-11-23T07:55:08;0.40;59.80
17984;DHT22;9117;52.420;20.728;2022-11-23T07:57:36;0.40;99.90
17984;DHT22;9117;52.420;20.728;2022-11-23T08:00:05;0.40;1.00
17984;DHT22;9117;52.420;20.728;2022-11-23T08:02:33;0.50;1.00
17984;DHT22;9117;52.420;20.728;2022-11-23T08:05:04;0.50;1.00
17984;DHT22;9117;52.420;20.728;2022-11-23T08:07:39;0.50;99.90
17984;DHT22;9117;52.420;20.728;2022-11-23T08:10:08;0.70;1.00
17984;DHT22;9117;52.420;20.728;2022-11-23T08:12:37;0.50;99.90
17984;DHT22;9117;52.420;20.728;2022-11-23T08:15:06;0.40;1.00
17984;DHT22;9117;52.420;20.728;2022-11-23T08:17:34;0.40;1.00
17984;DHT22;9117;52.420;20.728;2022-11-23T08:20:04;0.80;1.00
17984;DHT22;9117;52.420;20.728;2022-11-23T08:22:32;0.50;1.00
17984;DHT22;9117;52.420;20.728;2022-11-23T08:25:00;0.50;1.00
17984;DHT22;9117;52.420;20.728;2022-11-23T08:27:28;0.50;1.00
17984;DHT22;9117;52.420;20.728;2022-11-23T08:29:56;0.50;1.00
17984;DHT22;9117;52.420;20.728;2022-11-23T08:32:24;0.40;99.90
17984;DHT22;9117;52.420;20.728;2022-11-23T08:34:52;1.10;99.90
17984;DHT22;9117;52.420;20.728;2022-11-23T08:37:22;0.50;99.90
17984;DHT22;9117;52.420;20.728;2022-11-23T08:39:50;0.40;99.90
17984;DHT22;9117;52.420;20.728;2022-11-23T08:42:18;0.40;1.00
17984;DHT22;9117;52.420;20.728;2022-11-23T08:44:46;0.40;99.90
17984;DHT22;9117;52.420;20.728;2022-11-23T08:47:14;0.40;99.90
17984;DHT22;9117;52.420;20.728;2022-11-23T08:49:42;0.40;99.90
17984;DHT22;9117;52.420;20.728;2022-11-23T08:52:10;0.40;1.00
17984;DHT22;9117;52.420;20.728;2022-11-23T08:54:39;0.40;99.90
17984;DHT22;9117;52.420;20.728;2022-11-23T08:57:08;-0.40;1.00
17984;DHT22;9117;52.420;20.728;2022-11-23T08:59:36;0.40;1.00
17984;DHT22;9117;52.420;20.728;2022-11-23T09:02:04;0.40;1.00
17984;DHT22;9117;52.420;20.728;2022-11-23T09:04:32;0.80;99.90
17984;DHT22;9117;52.420;20.728;2022-11-23T09:07:02;0.50;99.90
17984;DHT22;9117;52.420;20.728;2022-11-23T09:09:30;0.40;99.90
17984;DHT22;9117;52.420;20.728;2022-11-23T09:11:59;0.50;1.00
17984;DHT22;9117;52.420;20.728;2022-11-23T09:14:27;1.10;1.00
17984;DHT22;9117;52.420;20.728;2022-11-23T09:16:56;0.60;1.00
17984;DHT22;9117;52.420;20.728;2022-11-23T09:19:24;0.50;1.00
17984;DHT22;9117;52.420;20.728;2022-11-23T09:21:52;0.60;1.00
17984;DHT22;9117;52.420;20.728;2022-11-23T09:24:20;0.60;1.00
17984;DHT22;9117;52.420;20.728;2022-11-23T09:26:49;0.70;99.90
17984;DHT22;9117;52.420;20.728;2022-11-23T09:29:19;1.40;99.90
17984;DHT22;9117;52.420;20.728;2022-11-23T09:31:47;1.20;99.90
17984;DHT22;9117;52.420;20.728;2022-11-23T09:34:15;0.60;99.90
17984;DHT22;9117;52.420;20.728;2022-11-23T09:36:43;0.60;1.00
17984;DHT22;9117;52.420;20.728;2022-11-23T09:39:11;0.50;1.00
17984;DHT22;9117;52.420;20.728;2022-11-23T09:42:01;0.40;1.00
17984;DHT22;9117;52.420;20.728;2022-11-23T09:44:45;0.40;1.00
17984;DHT22;9117;52.420;20.728;2022-11-23T09:47:32;0.40;1.00
17984;DHT22;9117;52.420;20.728;2022-11-23T09:50:11;0.40;99.90
17984;DHT22;9117;52.420;20.728;2022-11-23T09:52:43;0.60;99.90
17984;DHT22;9117;52.420;20.728;2022-11-23T09:55:15;1.10;1.00
17984;DHT22;9117;52.420;20.728;2022-11-23T09:57:45;0.70;99.90
17984;DHT22;9117;52.420;20.728;2022-11-23T10:00:19;0.60;99.90
17984;DHT22;9117;52.420;20.728;2022-11-23T10:02:47;0.60;99.90
17984;DHT22;9117;52.420;20.728;2022-11-23T10:05:17;0.60;1.00
17984;DHT22;9117;52.420;20.728;2022-11-23T10:07:56;1.50;1.00
17984;DHT22;9117;52.420;20.728;2022-11-23T10:10:40;0.50;6.00
17984;DHT22;9117;52.420;20.728;2022-11-23T10:13:24;0.50;99.90
17984;DHT22;9117;52.420;20.728;2022-11-23T10:16:09;0.50;1.00
17984;DHT22;9117;52.420;20.728;2022-11-23T10:18:48;0.50;99.90
17984;DHT22;9117;52.420;20.728;2022-11-23T10:21:26;1.50;1.00
17984;DHT22;9117;52.420;20.728;2022-11-23T10:24:09;0.40;1.00
17984;DHT22;9117;52.420;20.728;2022-11-23T10:26:41;0.50;99.90
17984;DHT22;9117;52.420;20.728;2022-11-23T10:29:13;0.50;99.90
17984;DHT22;9117;52.420;20.728;2022-11-23T10:31:46;0.50;99.90
17984;DHT22;9117;52.420;20.728;2022-11-23T10:34:32;0.50;99.90
17984;DHT22;9117;52.420;20.728;2022-11-23T10:37:02;0.60;1.00
17984;DHT22;9117;52.420;20.728;2022-11-23T10:39:30;0.80;1.00
17984;DHT22;9117;52.420;20.728;2022-11-23T10:42:00;1.00;1.00
17984;DHT22;9117;52.420;20.728;2022-11-23T10:44:32;0.60;99.90
17984;DHT22;9117;52.420;20.728;2022-11-23T10:47:04;0.60;1.00
17984;DHT22;9117;52.420;20.728;2022-11-23T10:49:33;1.30;1.00
17984;DHT22;9117;52.420;20.728;2022-11-23T10:52:03;0.60;1.00
17984;DHT22;9117;52.420;20.728;2022-11-23T10:54:34;0.60;1.00
17984;DHT22;9117;52.420;20.728;2022-11-23T10:57:20;0.60;1.00
17984;DHT22;9117;52.420;20.728;2022-11-23T10:59:56;1.20;1.00
17984;DHT22;9117;52.420;20.728;2022-11-23T11:02:27;0.50;1.00
17984;DHT22;9117;52.420;20.728;2022-11-23T11:05:24;0.50;1.00
17984;DHT22;9117;52.420;20.728;2022-11-23T11:08:14;0.60;1.00
17984;DHT22;9117;52.420;20.728;2022-11-23T11:10:45;0.60;1.00
17984;DHT22;9117;52.420;20.728;2022-11-23T11:13:24;0.60;1.00
17984;DHT22;9117;52.420;20.728;2022-11-23T11:15:54;0.50;1.00
17984;DHT22;9117;52.420;20.728;2022-11-23T11:18:27;0.50;1.00
17984;DHT22;9117;52.420;20.728;2022-11-23T11:20:59;0.60;99.90
17984;DHT22;9117;52.420;20.728;2022-11-23T11:23:28;0.60;99.90
17984;DHT22;9117;52.420;20.728;2022-11-23T11:26:10;0.50;99.90
17984;DHT22;9117;52.420;20.728;2022-11-23T11:28:42;0.50;99.90
17984;DHT22;9117;52.420;20.728;2022-11-23T11:31:43;0.50;99.90
17984;DHT22;9117;52.420;20.728;2022-11-23T11:34:20;0.50;99.90
17984;DHT22;9117;52.420;20.728;2022-11-23T11:36:56;1.40;99.90
17984;DHT22;9117;52.420;20.728;2022-11-23T11:39:28;0.60;19.60
17984;DHT22;9117;52.420;20.728;2022-11-23T11:42:03;0.60;99.90
17984;DHT22;9117;52.420;20.728;2022-11-23T11:44:35;0.50;99.90
17984;DHT22;9117;52.420;20.728;2022-11-23T11:47:14;0.60;99.90
17984;DHT22;9117;52.420;20.728;2022-11-23T11:49:49;0.70;99.90
17984;DHT22;9117;52.420;20.728;2022-11-23T11:52:21;0.60;61.10
17984;DHT22;9117;52.420;20.728;2022-11-23T11:54:55;1.50;99.90
17984;DHT22;9117;52.420;20.728;2022-11-23T11:57:30;0.60;99.90
17984;DHT22;9117;52.420;20.728;2022-11-23T12:00:01;0.60;64.60
17984;DHT22;9117;52.420;20.728;2022-11-23T12:02:34;0.70;1.00
17984;DHT22;9117;52.420;20.728;2022-11-23T12:05:10;0.60;1.00
17984;DHT22;9117;52.420;20.728;2022-11-23T12:07:45;0.60;1.00
17984;DHT22;9117;52.420;20.728;2022-11-23T12:10:18;0.60;1.00
17984;DHT22;9117;52.420;20.728;2022-11-23T12:12:48;1.50;21.90
17984;DHT22;9117;52.420;20.728;2022-11-23T12:15:17;1.50;1.00
17984;DHT22;9117;52.420;20.728;2022-11-23T12:18:27;0.60;1.00
17984;DHT22;9117;52.420;20.728;2022-11-23T12:21:03;0.70;1.00
17984;DHT22;9117;52.420;20.728;2022-11-23T12:23:43;0.60;1.00
17984;DHT22;9117;52.420;20.728;2022-11-23T12:26:20;0.70;1.00
17984;DHT22;9117;52.420;20.728;2022-11-23T12:32:06;0.70;1.00
17984;DHT22;9117;52.420;20.728;2022-11-23T12:34:57;0.80;1.00
17984;DHT22;9117;52.420;20.728;2022-11-23T12:37:38;0.80;8.80
17984;DHT22;9117;52.420;20.728;2022-11-23T12:43:18;0.80;53.90
17984;DHT22;9117;52.420;20.728;2022-11-23T12:46:06;0.70;1.00
17984;DHT22;9117;52.420;20.728;2022-11-23T12:48:52;0.70;1.00
17984;DHT22;9117;52.420;20.728;2022-11-23T12:51:34;0.70;1.00
17984;DHT22;9117;52.420;20.728;2022-11-23T12:54:16;0.60;6.00
17984;DHT22;9117;52.420;20.728;2022-11-23T12:57:05;0.60;99.90
17984;DHT22;9117;52.420;20.728;2022-11-23T12:59:43;0.60;99.90
17984;DHT22;9117;52.420;20.728;2022-11-23T13:05:33;0.60;99.90
17984;DHT22;9117;52.420;20.728;2022-11-23T13:08:30;0.50;1.00
17984;DHT22;9117;52.420;20.728;2022-11-23T13:11:15;0.80;1.00
17984;DHT22;9117;52.420;20.728;2022-11-23T13:14:00;0.50;99.90
17984;DHT22;9117;52.420;20.728;2022-11-23T13:16:42;0.50;99.90
17984;DHT22;9117;52.420;20.728;2022-11-23T13:19:33;0.50;99.90
17984;DHT22;9117;52.420;20.728;2022-11-23T13:22:05;0.60;99.90
17984;DHT22;9117;52.420;20.728;2022-11-23T13:24:38;0.50;99.90
17984;DHT22;9117;52.420;20.728;2022-11-23T13:27:41;-0.50;99.90
17984;DHT22;9117;52.420;20.728;2022-11-23T13:30:24;0.90;15.00
17984;DHT22;9117;52.420;20.728;2022-11-23T13:33:35;0.60;1.00
17984;DHT22;9117;52.420;20.728;2022-11-23T13:36:04;0.60;99.90
17984;DHT22;9117;52.420;20.728;2022-11-23T13:38:41;0.60;1.00
17984;DHT22;9117;52.420;20.728;2022-11-23T13:44:22;0.50;99.90
17984;DHT22;9117;52.420;20.728;2022-11-23T13:47:17;0.90;99.90
17984;DHT22;9117;52.420;20.728;2022-11-23T13:49:47;0.50;99.90
17984;DHT22;9117;52.420;20.728;2022-11-23T13:52:26;0.40;99.90
17984;DHT22;9117;52.420;20.728;2022-11-23T13:54:59;0.40;99.90
17984;DHT22;9117;52.420;20.728;2022-11-23T13:57:35;0.50;99.90
17984;DHT22;9117;52.420;20.728;2022-11-23T14:03:49;0.60;1.00
17984;DHT22;9117;52.420;20.728;2022-11-23T14:06:25;0.60;99.90
17984;DHT22;9117;52.420;20.728;2022-11-23T14:09:00;0.60;1.00
17984;DHT22;9117;52.420;20.728;2022-11-23T14:11:34;0.60;99.90
17984;DHT22;9117;52.420;20.728;2022-11-23T14:14:04;0.50;90.70
17984;DHT22;9117;52.420;20.728;2022-11-23T14:17:03;0.50;99.90
17984;DHT22;9117;52.420;20.728;2022-11-23T14:19:43;0.50;1.00
17984;DHT22;9117;52.420;20.728;2022-11-23T14:22:23;0.50;99.90
17984;DHT22;9117;52.420;20.728;2022-11-23T14:25:16;1.20;99.90
17984;DHT22;9117;52.420;20.728;2022-11-23T14:27:57;0.40;99.90
17984;DHT22;9117;52.420;20.728;2022-11-23T14:30:39;0.40;99.90
17984;DHT22;9117;52.420;20.728;2022-11-23T14:33:21;0.40;99.90
17984;DHT22;9117;52.420;20.728;2022-11-23T14:35:59;0.40;99.90
17984;DHT22;9117;52.420;20.728;2022-11-23T14:38:50;0.70;1.00
17984;DHT22;9117;52.420;20.728;2022-11-23T14:41:22;1.10;1.00
17984;DHT22;9117;52.420;20.728;2022-11-23T14:43:52;0.80;99.90
17984;DHT22;9117;52.420;20.728;2022-11-23T14:46:22;1.00;99.90
17984;DHT22;9117;52.420;20.728;2022-11-23T14:48:55;0.30;99.90
17984;DHT22;9117;52.420;20.728;2022-11-23T14:51:30;0.30;99.90
17984;DHT22;9117;52.420;20.728;2022-11-23T14:54:01;0.80;99.90
17984;DHT22;9117;52.420;20.728;2022-11-23T14:56:36;0.30;1.00
17984;DHT22;9117;52.420;20.728;2022-11-23T14:59:08;0.30;1.00
17984;DHT22;9117;52.420;20.728;2022-11-23T15:01:37;0.20;99.90
17984;DHT22;9117;52.420;20.728;2022-11-23T15:04:09;0.80;40.70
17984;DHT22;9117;52.420;20.728;2022-11-23T15:06:43;1.30;99.90
17984;DHT22;9117;52.420;20.728;2022-11-23T15:09:21;0.10;99.90
17984;DHT22;9117;52.420;20.728;2022-11-23T15:11:50;0.10;32.30
17984;DHT22;9117;52.420;20.728;2022-11-23T15:14:20;0.10;99.90
17984;DHT22;9117;52.420;20.728;2022-11-23T15:16:52;1.00;99.90
17984;DHT22;9117;52.420;20.728;2022-11-23T15:19:26;0.50;65.10
17984;DHT22;9117;52.420;20.728;2022-11-23T15:21:56;0.00;99.90
17984;DHT22;9117;52.420;20.728;2022-11-23T15:24:25;0.70;53.00
17984;DHT22;9117;52.420;20.728;2022-11-23T15:26:57;0.00;1.00
17984;DHT22;9117;52.420;20.728;2022-11-23T15:29:37;0.10;90.00
17984;DHT22;9117;52.420;20.728;2022-11-23T15:32:21;0.70;1.00
17984;DHT22;9117;52.420;20.728;2022-11-23T15:35:01;0.20;1.00
17984;DHT22;9117;52.420;20.728;2022-11-23T15:37:32;0.10;27.80
17984;DHT22;9117;52.420;20.728;2022-11-23T15:40:04;0.10;59.10
17984;DHT22;9117;52.420;20.728;2022-11-23T15:42:34;0.10;1.00
17984;DHT22;9117;52.420;20.728;2022-11-23T15:45:02;0.00;83.80
17984;DHT22;9117;52.420;20.728;2022-11-23T15:47:30;0.00;99.90
17984;DHT22;9117;52.420;20.728;2022-11-23T15:50:00;0.00;99.90
17984;DHT22;9117;52.420;20.728;2022-11-23T15:52:33;0.10;1.00
17984;DHT22;9117;52.420;20.728;2022-11-23T15:55:03;0.10;99.90
17984;DHT22;9117;52.420;20.728;2022-11-23T15:57:36;0.10;99.90
17984;DHT22;9117;52.420;20.728;2022-11-23T16:00:07;0.60;99.90
17984;DHT22;9117;52.420;20.728;2022-11-23T16:02:35;0.10;99.90
17984;DHT22;9117;52.420;20.728;2022-11-23T16:05:11;0.00;99.90
17984;DHT22;9117;52.420;20.728;2022-11-23T16:07:52;0.00;1.00
17984;DHT22;9117;52.420;20.728;2022-11-23T16:10:22;0.40;1.00
17984;DHT22;9117;52.420;20.728;2022-11-23T16:12:51;-0.20;1.00
17984;DHT22;9117;52.420;20.728;2022-11-23T16:15:38;-0.20;99.90
17984;DHT22;9117;52.420;20.728;2022-11-23T16:18:19;-0.10;83.70
17984;DHT22;9117;52.420;20.728;2022-11-23T16:20:50;0.20;99.90
17984;DHT22;9117;52.420;20.728;2022-11-23T16:23:22;-0.10;1.00
17984;DHT22;9117;52.420;20.728;2022-11-23T16:25:53;-0.90;1.00
17984;DHT22;9117;52.420;20.728;2022-11-23T16:28:28;-0.10;99.90
17984;DHT22;9117;52.420;20.728;2022-11-23T16:30:57;-0.20;1.00
17984;DHT22;9117;52.420;20.728;2022-11-23T16:33:25;-0.30;1.00
17984;DHT22;9117;52.420;20.728;2022-11-23T16:35:54;-0.30;1.00
17984;DHT22;9117;52.420;20.728;2022-11-23T16:38:24;0.30;1.00
17984;DHT22;9117;52.420;20.728;2022-11-23T16:40:52;0.20;79.60
17984;DHT22;9117;52.420;20.728;2022-11-23T16:43:22;-0.30;99.90